sensor_id;sensor_type;location;lat;lon;timestamp;P1;durP1;ratioP1;P2;durP2;ratioP2
25345;SDS011;13300;51.032;3.710;2023-01-28T00:01:50;17.67;;;11.70;;
25345;SDS011;13300;51.032;3.710;2023-01-28T00:04:19;20.80;;;12.82;;
25345;SDS011;13300;51.032;3.710;2023-01-28T00:06:46;18.20;;;12.43;;
25345;SDS011;13300;51.032;3.710;2023-01-28T00:09:22;23.33;;;13.10;;
25345;SDS011;13300;51.032;3.710;2023-01-28T00:11:51;19.33;;;12.52;;
25345;SDS011;13300;51.032;3.710;2023-01-28T00:14:26;19.83;;;12.90;;
25345;SDS011;13300;51.032;3.710;2023-01-28T00:16:53;21.73;;;13.43;;
25345;SDS011;13300;51.032;3.710;2023-01-28T00:19:23;20.65;;;12.45;;
25345;SDS011;13300;51.032;3.710;2023-01-28T00:22:06;19.10;;;13.07;;
25345;SDS011;13300;51.032;3.710;2023-01-28T00:24:42;18.02;;;12.55;;
25345;SDS011;13300;51.032;3.710;2023-01-28T00:27:11;18.90;;;12.35;;
25345;SDS011;13300;51.032;3.710;2023-01-28T00:29:38;21.23;;;13.20;;
25345;SDS011;13300;51.032;3.710;2023-01-28T00:32:04;19.00;;;13.52;;
25345;SDS011;13300;51.032;3.710;2023-01-28T00:34:38;18.70;;;12.85;;
25345;SDS011;13300;51.032;3.710;2023-01-28T00:37:08;17.90;;;12.00;;
25345;SDS011;13300;51.032;3.710;2023-01-28T00:39:34;18.75;;;13.02;;
25345;SDS011;13300;51.032;3.710;2023-01-28T00:42:06;18.42;;;12.60;;
25345;SDS011;13300;51.032;3.710;2023-01-28T00:47:53;18.83;;;12.18;;
25345;SDS011;13300;51.032;3.710;2023-01-28T00:50:21;16.25;;;11.65;;
25345;SDS011;13300;51.032;3.710;2023-01-28T00:52:48;19.63;;;11.23;;
25345;SDS011;13300;51.032;3.710;2023-01-28T00:55:17;16.63;;;11.60;;
25345;SDS011;13300;51.032;3.710;2023-01-28T00:57:45;15.93;;;11.23;;
25345;SDS011;13300;51.032;3.710;2023-01-28T01:00:12;16.85;;;11.13;;
25345;SDS011;13300;51.032;3.710;2023-01-28T01:02:41;17.65;;;11.80;;
25345;SDS011;13300;51.032;3.710;2023-01-28T01:05:08;17.35;;;12.15;;
25345;SDS011;13300;51.032;3.710;2023-01-28T01:07:38;18.00;;;12.23;;
25345;SDS011;13300;51.032;3.710;2023-01-28T01:10:09;18.23;;;12.63;;
25345;SDS011;13300;51.032;3.710;2023-01-28T01:12:37;18.07;;;12.07;;
25345;SDS011;13300;51.032;3.710;2023-01-28T01:15:04;17.00;;;12.15;;
25345;SDS011;13300;51.032;3.710;2023-01-28T01:20:25;16.27;;;11.20;;
25345;SDS011;13300;51.032;3.710;2023-01-28T01:23:03;17.63;;;11.65;;
25345;SDS011;13300;51.032;3.710;2023-01-28T01:25:30;17.25;;;11.45;;
25345;SDS011;13300;51.032;3.710;2023-01-28T01:28:05;17.98;;;12.10;;
25345;SDS011;13300;51.032;3.710;2023-01-28T01:30:34;18.48;;;10.75;;
25345;SDS011;13300;51.032;3.710;2023-01-28T01:33:02;15.63;;;11.00;;
25345;SDS011;13300;51.032;3.710;2023-01-28T01:35:31;16.45;;;11.15;;
25345;SDS011;13300;51.032;3.710;2023-01-28T01:37:57;17.42;;;11.00;;
25345;SDS011;13300;51.032;3.710;2023-01-28T01:40:28;15.57;;;10.88;;
25345;SDS011;13300;51.032;3.710;2023-01-28T01:42:57;18.27;;;11.98;;
25345;SDS011;13300;51.032;3.710;2023-01-28T01:45:26;15.55;;;10.88;;
25345;SDS011;13300;51.032;3.710;2023-01-28T01:50:59;15.85;;;10.38;;
25345;SDS011;13300;51.032;3.710;2023-01-28T01:53:33;15.77;;;10.73;;
25345;SDS011;13300;51.032;3.710;2023-01-28T01:56:08;16.67;;;10.77;;
25345;SDS011;13300;51.032;3.710;2023-01-28T01:58:48;14.20;;;10.15;;
25345;SDS011;13300;51.032;3.710;2023-01-28T02:01:20;15.88;;;11.05;;
25345;SDS011;13300;51.032;3.710;2023-01-28T02:04:09;16.60;;;11.32;;
25345;SDS011;13300;51.032;3.710;2023-01-28T02:06:42;15.65;;;10.65;;
25345;SDS011;13300;51.032;3.710;2023-01-28T02:09:27;17.27;;;10.77;;
25345;SDS011;13300;51.032;3.710;2023-01-28T02:11:58;15.50;;;10.68;;
25345;SDS011;13300;51.032;3.710;2023-01-28T02:14:34;15.15;;;10.73;;
25345;SDS011;13300;51.032;3.710;2023-01-28T02:17:03;15.48;;;10.80;;
25345;SDS011;13300;51.032;3.710;2023-01-28T02:28:12;16.13;;;10.60;;
25345;SDS011;13300;51.032;3.710;2023-01-28T02:31:20;17.13;;;11.50;;
25345;SDS011;13300;51.032;3.710;2023-01-28T02:37:46;15.57;;;11.10;;
25345;SDS011;13300;51.032;3.710;2023-01-28T02:40:21;18.92;;;11.82;;
25345;SDS011;13300;51.032;3.710;2023-01-28T02:43:27;15.73;;;10.48;;
25345;SDS011;13300;51.032;3.710;2023-01-28T02:46:03;14.82;;;10.90;;
25345;SDS011;13300;51.032;3.710;2023-01-28T02:49:16;15.18;;;9.90;;
25345;SDS011;13300;51.032;3.710;2023-01-28T03:01:14;16.40;;;10.68;;
25345;SDS011;13300;51.032;3.710;2023-01-28T03:04:07;14.65;;;10.48;;
25345;SDS011;13300;51.032;3.710;2023-01-28T03:06:57;14.65;;;10.18;;
25345;SDS011;13300;51.032;3.710;2023-01-28T03:09:30;15.70;;;10.32;;
25345;SDS011;13300;51.032;3.710;2023-01-28T03:15:08;13.57;;;9.88;;
25345;SDS011;13300;51.032;3.710;2023-01-28T03:18:19;13.95;;;9.60;;
25345;SDS011;13300;51.032;3.710;2023-01-28T03:21:14;13.52;;;9.77;;
25345;SDS011;13300;51.032;3.710;2023-01-28T03:24:08;12.32;;;9.48;;
25345;SDS011;13300;51.032;3.710;2023-01-28T03:30:04;14.02;;;9.15;;
25345;SDS011;13300;51.032;3.710;2023-01-28T03:32:55;13.23;;;9.35;;
25345;SDS011;13300;51.032;3.710;2023-01-28T03:35:43;12.57;;;9.38;;
25345;SDS011;13300;51.032;3.710;2023-01-28T03:38:31;14.05;;;9.07;;
25345;SDS011;13300;51.032;3.710;2023-01-28T03:41:06;13.27;;;9.50;;
25345;SDS011;13300;51.032;3.710;2023-01-28T03:43:51;13.02;;;9.57;;
25345;SDS011;13300;51.032;3.710;2023-01-28T03:46:26;15.63;;;10.40;;
25345;SDS011;13300;51.032;3.710;2023-01-28T03:48:53;15.57;;;11.02;;
25345;SDS011;13300;51.032;3.710;2023-01-28T03:51:19;13.95;;;9.63;;
25345;SDS011;13300;51.032;3.710;2023-01-28T03:53:50;15.43;;;10.63;;
25345;SDS011;13300;51.032;3.710;2023-01-28T03:56:15;15.25;;;10.35;;
25345;SDS011;13300;51.032;3.710;2023-01-28T03:58:42;14.13;;;9.73;;
25345;SDS011;13300;51.032;3.710;2023-01-28T04:01:17;15.90;;;11.10;;
25345;SDS011;13300;51.032;3.710;2023-01-28T04:03:44;15.45;;;10.80;;
25345;SDS011;13300;51.032;3.710;2023-01-28T04:06:10;15.80;;;10.93;;
25345;SDS011;13300;51.032;3.710;2023-01-28T04:08:37;16.30;;;10.98;;
25345;SDS011;13300;51.032;3.710;2023-01-28T04:11:04;16.92;;;11.25;;
25345;SDS011;13300;51.032;3.710;2023-01-28T04:13:46;15.18;;;10.30;;
25345;SDS011;13300;51.032;3.710;2023-01-28T04:16:14;16.53;;;11.07;;
25345;SDS011;13300;51.032;3.710;2023-01-28T04:18:45;17.23;;;10.93;;
25345;SDS011;13300;51.032;3.710;2023-01-28T04:21:12;14.90;;;10.15;;
25345;SDS011;13300;51.032;3.710;2023-01-28T04:23:40;14.98;;;10.45;;
25345;SDS011;13300;51.032;3.710;2023-01-28T04:26:06;13.52;;;9.90;;
25345;SDS011;13300;51.032;3.710;2023-01-28T04:28:32;14.75;;;9.70;;
25345;SDS011;13300;51.032;3.710;2023-01-28T04:30:58;13.27;;;9.98;;
25345;SDS011;13300;51.032;3.710;2023-01-28T04:33:25;14.52;;;10.02;;
25345;SDS011;13300;51.032;3.710;2023-01-28T04:35:53;13.88;;;10.43;;
25345;SDS011;13300;51.032;3.710;2023-01-28T04:38:21;14.88;;;10.30;;
25345;SDS011;13300;51.032;3.710;2023-01-28T04:40:49;18.85;;;11.20;;
25345;SDS011;13300;51.032;3.710;2023-01-28T04:43:19;15.32;;;10.70;;
25345;SDS011;13300;51.032;3.710;2023-01-28T04:45:47;17.17;;;11.70;;
25345;SDS011;13300;51.032;3.710;2023-01-28T04:48:20;18.55;;;12.10;;
25345;SDS011;13300;51.032;3.710;2023-01-28T04:50:59;16.08;;;11.38;;
25345;SDS011;13300;51.032;3.710;2023-01-28T04:53:26;17.55;;;11.60;;
25345;SDS011;13300;51.032;3.710;2023-01-28T04:56:07;16.05;;;10.48;;
25345;SDS011;13300;51.032;3.710;2023-01-28T04:58:35;17.50;;;12.27;;
25345;SDS011;13300;51.032;3.710;2023-01-28T05:01:03;16.40;;;10.98;;
25345;SDS011;13300;51.032;3.710;2023-01-28T05:03:29;14.90;;;10.45;;
25345;SDS011;13300;51.032;3.710;2023-01-28T05:05:55;14.80;;;10.30;;
25345;SDS011;13300;51.032;3.710;2023-01-28T05:08:26;19.08;;;11.13;;
25345;SDS011;13300;51.032;3.710;2023-01-28T05:10:53;14.90;;;10.30;;
25345;SDS011;13300;51.032;3.710;2023-01-28T05:13:19;14.85;;;10.02;;
25345;SDS011;13300;51.032;3.710;2023-01-28T05:15:52;14.40;;;9.77;;
25345;SDS011;13300;51.032;3.710;2023-01-28T05:18:21;16.00;;;10.60;;
25345;SDS011;13300;51.032;3.710;2023-01-28T05:20:50;15.70;;;10.50;;
25345;SDS011;13300;51.032;3.710;2023-01-28T05:23:16;14.90;;;10.75;;
25345;SDS011;13300;51.032;3.710;2023-01-28T05:25:42;14.25;;;10.07;;
25345;SDS011;13300;51.032;3.710;2023-01-28T05:28:12;14.25;;;10.35;;
25345;SDS011;13300;51.032;3.710;2023-01-28T05:30:38;13.93;;;10.23;;
25345;SDS011;13300;51.032;3.710;2023-01-28T05:33:06;16.77;;;10.07;;
25345;SDS011;13300;51.032;3.710;2023-01-28T05:35:42;15.95;;;10.32;;
25345;SDS011;13300;51.032;3.710;2023-01-28T05:38:08;14.63;;;9.73;;
25345;SDS011;13300;51.032;3.710;2023-01-28T05:40:34;14.18;;;10.30;;
25345;SDS011;13300;51.032;3.710;2023-01-28T05:43:00;13.32;;;10.18;;
25345;SDS011;13300;51.032;3.710;2023-01-28T05:45:28;15.35;;;10.30;;
25345;SDS011;13300;51.032;3.710;2023-01-28T05:47:54;14.07;;;9.75;;
25345;SDS011;13300;51.032;3.710;2023-01-28T05:50:20;13.15;;;9.68;;
25345;SDS011;13300;51.032;3.710;2023-01-28T05:55:16;17.25;;;10.85;;
25345;SDS011;13300;51.032;3.710;2023-01-28T05:57:42;16.88;;;11.20;;
25345;SDS011;13300;51.032;3.710;2023-01-28T06:00:09;16.33;;;10.90;;
25345;SDS011;13300;51.032;3.710;2023-01-28T06:02:37;16.55;;;10.98;;
25345;SDS011;13300;51.032;3.710;2023-01-28T06:05:06;17.23;;;10.82;;
25345;SDS011;13300;51.032;3.710;2023-01-28T06:07:33;16.60;;;10.80;;
25345;SDS011;13300;51.032;3.710;2023-01-28T06:10:01;17.40;;;11.65;;
25345;SDS011;13300;51.032;3.710;2023-01-28T06:12:27;20.42;;;12.50;;
25345;SDS011;13300;51.032;3.710;2023-01-28T06:14:52;18.77;;;12.10;;
25345;SDS011;13300;51.032;3.710;2023-01-28T06:17:23;21.10;;;13.43;;
25345;SDS011;13300;51.032;3.710;2023-01-28T06:19:51;20.70;;;12.85;;
25345;SDS011;13300;51.032;3.710;2023-01-28T06:22:22;16.50;;;11.07;;
25345;SDS011;13300;51.032;3.710;2023-01-28T06:24:48;16.73;;;10.93;;
25345;SDS011;13300;51.032;3.710;2023-01-28T06:27:15;18.00;;;10.98;;
25345;SDS011;13300;51.032;3.710;2023-01-28T06:29:46;18.75;;;10.65;;
25345;SDS011;13300;51.032;3.710;2023-01-28T06:32:35;17.13;;;10.57;;
25345;SDS011;13300;51.032;3.710;2023-01-28T06:35:07;18.60;;;11.20;;
25345;SDS011;13300;51.032;3.710;2023-01-28T06:37:35;17.55;;;11.15;;
25345;SDS011;13300;51.032;3.710;2023-01-28T06:40:04;17.52;;;11.48;;
25345;SDS011;13300;51.032;3.710;2023-01-28T06:42:36;16.45;;;10.65;;
25345;SDS011;13300;51.032;3.710;2023-01-28T06:45:02;17.52;;;10.60;;
25345;SDS011;13300;51.032;3.710;2023-01-28T06:47:41;17.50;;;10.73;;
25345;SDS011;13300;51.032;3.710;2023-01-28T06:50:10;17.33;;;11.32;;
25345;SDS011;13300;51.032;3.710;2023-01-28T06:52:36;17.58;;;11.40;;
25345;SDS011;13300;51.032;3.710;2023-01-28T06:55:01;18.17;;;11.43;;
25345;SDS011;13300;51.032;3.710;2023-01-28T06:57:27;18.17;;;11.75;;
25345;SDS011;13300;51.032;3.710;2023-01-28T06:59:56;17.40;;;11.55;;
25345;SDS011;13300;51.032;3.710;2023-01-28T07:02:22;17.45;;;10.77;;
25345;SDS011;13300;51.032;3.710;2023-01-28T07:04:47;17.98;;;10.57;;
25345;SDS011;13300;51.032;3.710;2023-01-28T07:07:13;18.08;;;11.38;;
25345;SDS011;13300;51.032;3.710;2023-01-28T07:09:42;20.60;;;11.32;;
25345;SDS011;13300;51.032;3.710;2023-01-28T07:12:08;18.27;;;11.32;;
25345;SDS011;13300;51.032;3.710;2023-01-28T07:14:41;18.42;;;10.90;;
25345;SDS011;13300;51.032;3.710;2023-01-28T07:17:07;18.58;;;11.75;;
25345;SDS011;13300;51.032;3.710;2023-01-28T07:19:32;18.50;;;11.48;;
25345;SDS011;13300;51.032;3.710;2023-01-28T07:21:58;18.42;;;11.88;;
25345;SDS011;13300;51.032;3.710;2023-01-28T07:24:29;17.48;;;11.80;;
25345;SDS011;13300;51.032;3.710;2023-01-28T07:26:57;20.95;;;13.00;;
25345;SDS011;13300;51.032;3.710;2023-01-28T07:29:23;21.38;;;13.00;;
25345;SDS011;13300;51.032;3.710;2023-01-28T07:31:49;19.30;;;12.50;;
25345;SDS011;13300;51.032;3.710;2023-01-28T07:34:15;20.75;;;13.20;;
25345;SDS011;13300;51.032;3.710;2023-01-28T07:36:41;19.85;;;13.55;;
25345;SDS011;13300;51.032;3.710;2023-01-28T07:39:06;20.10;;;13.35;;
25345;SDS011;13300;51.032;3.710;2023-01-28T07:41:32;19.83;;;13.43;;
25345;SDS011;13300;51.032;3.710;2023-01-28T07:43:58;22.80;;;14.18;;
25345;SDS011;13300;51.032;3.710;2023-01-28T07:46:24;19.85;;;13.80;;
25345;SDS011;13300;51.032;3.710;2023-01-28T07:48:49;22.30;;;14.20;;
25345;SDS011;13300;51.032;3.710;2023-01-28T07:51:24;19.15;;;13.80;;
25345;SDS011;13300;51.032;3.710;2023-01-28T07:53:50;20.23;;;13.82;;
25345;SDS011;13300;51.032;3.710;2023-01-28T07:56:16;20.42;;;13.82;;
25345;SDS011;13300;51.032;3.710;2023-01-28T07:58:42;20.40;;;13.45;;
25345;SDS011;13300;51.032;3.710;2023-01-28T08:01:07;22.60;;;15.38;;
25345;SDS011;13300;51.032;3.710;2023-01-28T08:03:33;22.20;;;15.25;;
25345;SDS011;13300;51.032;3.710;2023-01-28T08:06:00;21.42;;;14.77;;
25345;SDS011;13300;51.032;3.710;2023-01-28T08:08:25;23.38;;;15.63;;
25345;SDS011;13300;51.032;3.710;2023-01-28T08:10:51;22.98;;;15.85;;
25345;SDS011;13300;51.032;3.710;2023-01-28T08:13:17;22.95;;;15.90;;
25345;SDS011;13300;51.032;3.710;2023-01-28T08:15:44;26.70;;;17.08;;
25345;SDS011;13300;51.032;3.710;2023-01-28T08:18:11;25.60;;;16.80;;
25345;SDS011;13300;51.032;3.710;2023-01-28T08:20:39;25.00;;;17.27;;
25345;SDS011;13300;51.032;3.710;2023-01-28T08:25:40;25.55;;;16.08;;
25345;SDS011;13300;51.032;3.710;2023-01-28T08:28:06;24.42;;;16.08;;
25345;SDS011;13300;51.032;3.710;2023-01-28T08:30:33;26.40;;;17.63;;
25345;SDS011;13300;51.032;3.710;2023-01-28T08:32:59;26.02;;;17.15;;
25345;SDS011;13300;51.032;3.710;2023-01-28T08:35:26;24.23;;;16.27;;
25345;SDS011;13300;51.032;3.710;2023-01-28T08:37:52;24.08;;;16.15;;
25345;SDS011;13300;51.032;3.710;2023-01-28T08:40:21;26.17;;;17.45;;
25345;SDS011;13300;51.032;3.710;2023-01-28T08:42:48;26.17;;;18.15;;
25345;SDS011;13300;51.032;3.710;2023-01-28T08:45:15;26.17;;;16.95;;
25345;SDS011;13300;51.032;3.710;2023-01-28T08:47:48;27.65;;;17.95;;
25345;SDS011;13300;51.032;3.710;2023-01-28T08:50:26;24.00;;;16.77;;
25345;SDS011;13300;51.032;3.710;2023-01-28T08:52:57;27.17;;;17.73;;
25345;SDS011;13300;51.032;3.710;2023-01-28T08:55:24;25.25;;;16.15;;
25345;SDS011;13300;51.032;3.710;2023-01-28T08:57:51;24.35;;;16.35;;
25345;SDS011;13300;51.032;3.710;2023-01-28T09:00:19;27.60;;;16.50;;
25345;SDS011;13300;51.032;3.710;2023-01-28T09:02:46;25.70;;;16.02;;
25345;SDS011;13300;51.032;3.710;2023-01-28T09:05:14;23.52;;;15.88;;
25345;SDS011;13300;51.032;3.710;2023-01-28T09:07:43;23.98;;;16.38;;
25345;SDS011;13300;51.032;3.710;2023-01-28T09:10:09;26.08;;;16.23;;
25345;SDS011;13300;51.032;3.710;2023-01-28T09:12:37;24.45;;;15.48;;
25345;SDS011;13300;51.032;3.710;2023-01-28T09:15:03;23.00;;;14.38;;
25345;SDS011;13300;51.032;3.710;2023-01-28T09:17:30;20.88;;;13.80;;
25345;SDS011;13300;51.032;3.710;2023-01-28T09:19:55;17.33;;;11.80;;
25345;SDS011;13300;51.032;3.710;2023-01-28T09:22:21;17.15;;;12.07;;
25345;SDS011;13300;51.032;3.710;2023-01-28T09:24:47;16.25;;;11.45;;
25345;SDS011;13300;51.032;3.710;2023-01-28T09:27:12;18.63;;;12.85;;
25345;SDS011;13300;51.032;3.710;2023-01-28T09:29:38;16.65;;;12.40;;
25345;SDS011;13300;51.032;3.710;2023-01-28T09:32:04;18.33;;;11.45;;
25345;SDS011;13300;51.032;3.710;2023-01-28T09:34:31;15.18;;;10.75;;
25345;SDS011;13300;51.032;3.710;2023-01-28T09:36:57;15.10;;;10.60;;
25345;SDS011;13300;51.032;3.710;2023-01-28T09:39:23;16.17;;;9.32;;
25345;SDS011;13300;51.032;3.710;2023-01-28T09:47:41;12.63;;;8.40;;
25345;SDS011;13300;51.032;3.710;2023-01-28T09:50:15;13.75;;;8.65;;
25345;SDS011;13300;51.032;3.710;2023-01-28T09:52:50;11.60;;;7.88;;
25345;SDS011;13300;51.032;3.710;2023-01-28T09:55:24;8.20;;;7.10;;
25345;SDS011;13300;51.032;3.710;2023-01-28T09:57:59;7.75;;;6.60;;
25345;SDS011;13300;51.032;3.710;2023-01-28T10:00:33;9.18;;;7.07;;
25345;SDS011;13300;51.032;3.710;2023-01-28T10:03:27;8.05;;;6.65;;
25345;SDS011;13300;51.032;3.710;2023-01-28T10:17:26;9.13;;;7.70;;
25345;SDS011;13300;51.032;3.710;2023-01-28T10:20:05;11.18;;;8.20;;
25345;SDS011;13300;51.032;3.710;2023-01-28T10:22:51;11.43;;;8.52;;
25345;SDS011;13300;51.032;3.710;2023-01-28T10:25:44;9.80;;;7.90;;
25345;SDS011;13300;51.032;3.710;2023-01-28T10:28:18;13.25;;;9.35;;
25345;SDS011;13300;51.032;3.710;2023-01-28T10:30:47;12.32;;;8.65;;
25345;SDS011;13300;51.032;3.710;2023-01-28T10:35:54;13.10;;;9.88;;
25345;SDS011;13300;51.032;3.710;2023-01-28T10:38:22;14.93;;;10.52;;
25345;SDS011;13300;51.032;3.710;2023-01-28T10:40:50;14.80;;;10.90;;
25345;SDS011;13300;51.032;3.710;2023-01-28T10:43:20;15.07;;;10.95;;
25345;SDS011;13300;51.032;3.710;2023-01-28T10:46:09;14.05;;;10.27;;
25345;SDS011;13300;51.032;3.710;2023-01-28T10:51:29;13.73;;;9.98;;
25345;SDS011;13300;51.032;3.710;2023-01-28T10:54:18;13.40;;;10.05;;
25345;SDS011;13300;51.032;3.710;2023-01-28T10:56:58;18.52;;;10.40;;
25345;SDS011;13300;51.032;3.710;2023-01-28T10:59:33;15.65;;;11.10;;
25345;SDS011;13300;51.032;3.710;2023-01-28T11:05:14;17.52;;;10.52;;
25345;SDS011;13300;51.032;3.710;2023-01-28T11:07:45;16.48;;;11.40;;
25345;SDS011;13300;51.032;3.710;2023-01-28T11:10:22;18.63;;;11.88;;
25345;SDS011;13300;51.032;3.710;2023-01-28T11:15:24;18.33;;;11.40;;
25345;SDS011;13300;51.032;3.710;2023-01-28T11:17:54;19.00;;;11.52;;
25345;SDS011;13300;51.032;3.710;2023-01-28T11:20:34;15.32;;;9.88;;
25345;SDS011;13300;51.032;3.710;2023-01-28T11:23:20;13.98;;;9.55;;
25345;SDS011;13300;51.032;3.710;2023-01-28T11:25:58;15.35;;;10.02;;
25345;SDS011;13300;51.032;3.710;2023-01-28T11:28:56;15.50;;;10.05;;
25345;SDS011;13300;51.032;3.710;2023-01-28T11:31:38;17.45;;;10.02;;
25345;SDS011;13300;51.032;3.710;2023-01-28T11:34:11;15.25;;;10.35;;
25345;SDS011;13300;51.032;3.710;2023-01-28T11:36:48;16.63;;;10.23;;
25345;SDS011;13300;51.032;3.710;2023-01-28T11:39:28;16.50;;;9.88;;
25345;SDS011;13300;51.032;3.710;2023-01-28T11:42:02;13.68;;;8.85;;
25345;SDS011;13300;51.032;3.710;2023-01-28T11:44:38;14.15;;;9.02;;
25345;SDS011;13300;51.032;3.710;2023-01-28T11:56:14;15.73;;;9.07;;
25345;SDS011;13300;51.032;3.710;2023-01-28T12:01:59;12.95;;;8.90;;
25345;SDS011;13300;51.032;3.710;2023-01-28T12:05:15;12.95;;;8.45;;
25345;SDS011;13300;51.032;3.710;2023-01-28T12:08:07;15.02;;;9.77;;
25345;SDS011;13300;51.032;3.710;2023-01-28T12:10:56;13.70;;;9.90;;
25345;SDS011;13300;51.032;3.710;2023-01-28T12:13:47;13.82;;;9.85;;
25345;SDS011;13300;51.032;3.710;2023-01-28T12:19:52;17.88;;;11.60;;
25345;SDS011;13300;51.032;3.710;2023-01-28T12:33:13;11.47;;;9.23;;
25345;SDS011;13300;51.032;3.710;2023-01-28T12:42:07;12.40;;;9.07;;
25345;SDS011;13300;51.032;3.710;2023-01-28T12:44:39;11.35;;;8.00;;
25345;SDS011;13300;51.032;3.710;2023-01-28T12:47:14;11.38;;;7.80;;
25345;SDS011;13300;51.032;3.710;2023-01-28T12:49:51;11.88;;;8.15;;
25345;SDS011;13300;51.032;3.710;2023-01-28T12:52:24;17.88;;;10.40;;
25345;SDS011;13300;51.032;3.710;2023-01-28T12:57:48;10.38;;;7.53;;
25345;SDS011;13300;51.032;3.710;2023-01-28T13:03:10;10.32;;;6.75;;
25345;SDS011;13300;51.032;3.710;2023-01-28T13:06:01;11.73;;;7.55;;
25345;SDS011;13300;51.032;3.710;2023-01-28T13:08:48;9.48;;;7.07;;
25345;SDS011;13300;51.032;3.710;2023-01-28T13:11:22;9.48;;;7.25;;
25345;SDS011;13300;51.032;3.710;2023-01-28T13:13:54;9.60;;;7.05;;
25345;SDS011;13300;51.032;3.710;2023-01-28T13:16:20;9.50;;;6.75;;
25345;SDS011;13300;51.032;3.710;2023-01-28T13:18:48;11.45;;;6.93;;
25345;SDS011;13300;51.032;3.710;2023-01-28T13:21:28;10.02;;;6.72;;
25345;SDS011;13300;51.032;3.710;2023-01-28T13:26:51;10.02;;;7.53;;
25345;SDS011;13300;51.032;3.710;2023-01-28T13:31:50;11.43;;;7.63;;
25345;SDS011;13300;51.032;3.710;2023-01-28T13:34:34;10.30;;;6.93;;
25345;SDS011;13300;51.032;3.710;2023-01-28T13:37:17;10.73;;;7.22;;
25345;SDS011;13300;51.032;3.710;2023-01-28T13:39:53;10.40;;;7.00;;
25345;SDS011;13300;51.032;3.710;2023-01-28T13:42:30;11.68;;;7.15;;
25345;SDS011;13300;51.032;3.710;2023-01-28T13:48:27;11.13;;;7.22;;
25345;SDS011;13300;51.032;3.710;2023-01-28T13:51:52;13.52;;;7.03;;
25345;SDS011;13300;51.032;3.710;2023-01-28T13:54:34;10.07;;;6.63;;
25345;SDS011;13300;51.032;3.710;2023-01-28T14:03:15;11.70;;;7.25;;
25345;SDS011;13300;51.032;3.710;2023-01-28T14:11:52;11.52;;;6.72;;
25345;SDS011;13300;51.032;3.710;2023-01-28T14:19:35;6.43;;;4.13;;
25345;SDS011;13300;51.032;3.710;2023-01-28T14:22:09;6.28;;;3.70;;
25345;SDS011;13300;51.032;3.710;2023-01-28T14:24:43;5.32;;;2.95;;
25345;SDS011;13300;51.032;3.710;2023-01-28T14:32:53;4.50;;;2.88;;
25345;SDS011;13300;51.032;3.710;2023-01-28T14:38:29;5.25;;;3.50;;
25345;SDS011;13300;51.032;3.710;2023-01-28T14:41:02;6.50;;;3.50;;
25345;SDS011;13300;51.032;3.710;2023-01-28T14:43:31;7.63;;;3.63;;
25345;SDS011;13300;51.032;3.710;2023-01-28T14:54:33;8.07;;;2.50;;
25345;SDS011;13300;51.032;3.710;2023-01-28T15:00:23;7.15;;;3.17;;
25345;SDS011;13300;51.032;3.710;2023-01-28T15:02:58;4.45;;;3.17;;
25345;SDS011;13300;51.032;3.710;2023-01-28T15:05:26;5.03;;;3.40;;
25345;SDS011;13300;51.032;3.710;2023-01-28T15:07:55;5.82;;;3.67;;
25345;SDS011;13300;51.032;3.710;2023-01-28T15:10:34;8.80;;;4.22;;
25345;SDS011;13300;51.032;3.710;2023-01-28T15:13:06;6.07;;;4.20;;
25345;SDS011;13300;51.032;3.710;2023-01-28T15:15:45;6.57;;;4.18;;
25345;SDS011;13300;51.032;3.710;2023-01-28T15:18:17;6.40;;;3.95;;
25345;SDS011;13300;51.032;3.710;2023-01-28T15:20:51;4.95;;;3.92;;
25345;SDS011;13300;51.032;3.710;2023-01-28T15:23:46;4.57;;;3.47;;
25345;SDS011;13300;51.032;3.710;2023-01-28T15:26:23;4.75;;;3.63;;
25345;SDS011;13300;51.032;3.710;2023-01-28T15:29:29;5.03;;;3.80;;
25345;SDS011;13300;51.032;3.710;2023-01-28T15:31:59;5.60;;;4.28;;
25345;SDS011;13300;51.032;3.710;2023-01-28T15:34:28;5.37;;;4.50;;
25345;SDS011;13300;51.032;3.710;2023-01-28T15:37:09;7.57;;;4.57;;
25345;SDS011;13300;51.032;3.710;2023-01-28T15:39:41;6.80;;;4.90;;
25345;SDS011;13300;51.032;3.710;2023-01-28T15:42:18;8.30;;;4.85;;
25345;SDS011;13300;51.032;3.710;2023-01-28T15:45:01;5.78;;;4.55;;
25345;SDS011;13300;51.032;3.710;2023-01-28T15:47:29;10.43;;;4.90;;
25345;SDS011;13300;51.032;3.710;2023-01-28T15:50:01;7.32;;;4.93;;
25345;SDS011;13300;51.032;3.710;2023-01-28T15:52:34;6.45;;;4.75;;
25345;SDS011;13300;51.032;3.710;2023-01-28T15:55:05;7.25;;;5.50;;
25345;SDS011;13300;51.032;3.710;2023-01-28T16:00:45;5.85;;;4.70;;
25345;SDS011;13300;51.032;3.710;2023-01-28T16:03:19;10.63;;;5.93;;
25345;SDS011;13300;51.032;3.710;2023-01-28T16:05:59;7.40;;;5.88;;
25345;SDS011;13300;51.032;3.710;2023-01-28T16:08:49;7.03;;;5.18;;
25345;SDS011;13300;51.032;3.710;2023-01-28T16:11:24;7.43;;;5.15;;
25345;SDS011;13300;51.032;3.710;2023-01-28T16:13:55;6.43;;;4.90;;
25345;SDS011;13300;51.032;3.710;2023-01-28T16:16:28;11.23;;;5.88;;
25345;SDS011;13300;51.032;3.710;2023-01-28T16:19:05;6.43;;;4.55;;
25345;SDS011;13300;51.032;3.710;2023-01-28T16:21:43;6.10;;;4.32;;
25345;SDS011;13300;51.032;3.710;2023-01-28T16:24:24;5.60;;;4.72;;
25345;SDS011;13300;51.032;3.710;2023-01-28T16:26:54;5.82;;;4.10;;
25345;SDS011;13300;51.032;3.710;2023-01-28T16:29:22;6.43;;;4.53;;
25345;SDS011;13300;51.032;3.710;2023-01-28T16:32:01;8.67;;;4.97;;
25345;SDS011;13300;51.032;3.710;2023-01-28T16:34:54;8.70;;;5.95;;
25345;SDS011;13300;51.032;3.710;2023-01-28T16:37:21;7.03;;;4.82;;
25345;SDS011;13300;51.032;3.710;2023-01-28T16:39:47;9.30;;;5.00;;
25345;SDS011;13300;51.032;3.710;2023-01-28T16:42:13;6.55;;;5.05;;
25345;SDS011;13300;51.032;3.710;2023-01-28T16:44:43;9.70;;;4.57;;
25345;SDS011;13300;51.032;3.710;2023-01-28T16:47:08;7.97;;;5.22;;
25345;SDS011;13300;51.032;3.710;2023-01-28T16:49:37;11.55;;;5.28;;
25345;SDS011;13300;51.032;3.710;2023-01-28T16:52:12;11.95;;;6.13;;
25345;SDS011;13300;51.032;3.710;2023-01-28T16:54:39;8.40;;;6.07;;
25345;SDS011;13300;51.032;3.710;2023-01-28T16:57:10;9.65;;;5.50;;
25345;SDS011;13300;51.032;3.710;2023-01-28T17:02:05;18.58;;;10.63;;
25345;SDS011;13300;51.032;3.710;2023-01-28T17:04:36;15.48;;;9.55;;
25345;SDS011;13300;51.032;3.710;2023-01-28T17:07:05;9.23;;;6.40;;
25345;SDS011;13300;51.032;3.710;2023-01-28T17:09:37;9.05;;;5.60;;
25345;SDS011;13300;51.032;3.710;2023-01-28T17:12:13;7.95;;;5.60;;
25345;SDS011;13300;51.032;3.710;2023-01-28T17:14:41;8.75;;;5.90;;
25345;SDS011;13300;51.032;3.710;2023-01-28T17:17:07;8.60;;;6.38;;
25345;SDS011;13300;51.032;3.710;2023-01-28T17:19:36;12.55;;;6.72;;
25345;SDS011;13300;51.032;3.710;2023-01-28T17:22:10;15.00;;;6.95;;
25345;SDS011;13300;51.032;3.710;2023-01-28T17:24:38;11.52;;;8.05;;
25345;SDS011;13300;51.032;3.710;2023-01-28T17:27:05;9.98;;;6.60;;
25345;SDS011;13300;51.032;3.710;2023-01-28T17:29:31;9.00;;;7.20;;
25345;SDS011;13300;51.032;3.710;2023-01-28T17:32:03;9.57;;;6.13;;
25345;SDS011;13300;51.032;3.710;2023-01-28T17:34:38;10.35;;;6.78;;
25345;SDS011;13300;51.032;3.710;2023-01-28T17:37:04;13.32;;;8.15;;
25345;SDS011;13300;51.032;3.710;2023-01-28T17:39:29;9.65;;;7.60;;
25345;SDS011;13300;51.032;3.710;2023-01-28T17:42:00;12.73;;;7.43;;